createdAt,value
2023-02-01T01:09:45.524Z,511.00
2023-02-01T01:10:45.499Z,513.00
2023-02-01T01:11:45.480Z,514.00
2023-02-01T01:12:45.461Z,513.00
2023-02-01T01:13:45.433Z,515.00
2023-02-01T01:14:45.503Z,511.00
2023-02-01T01:15:45.433Z,510.00
2023-02-01T01:16:45.383Z,511.00
2023-02-01T01:17:45.398Z,510.00
2023-02-01T01:18:45.360Z,509.00
2023-02-01T01:19:45.329Z,508.00
2023-02-01T01:20:45.296Z,511.00
2023-02-01T01:21:45.578Z,510.00
2023-02-01T01:22:45.247Z,506.00
2023-02-01T01:23:45.252Z,511.00
2023-02-01T01:24:45.204Z,513.00
2023-02-01T01:25:45.191Z,507.00
2023-02-01T01:26:45.225Z,502.00
2023-02-01T01:27:45.156Z,506.00
2023-02-01T01:28:45.138Z,504.00
2023-02-01T01:29:45.120Z,508.00
2023-02-01T01:30:45.137Z,509.00
2023-02-01T01:31:45.088Z,507.00
2023-02-01T01:32:45.067Z,505.00
2023-02-01T01:33:45.062Z,506.00
2023-02-01T01:34:45.033Z,505.00
2023-02-01T01:35:45.019Z,507.00
2023-02-01T01:36:44.991Z,501.00
2023-02-01T01:37:44.971Z,510.00
2023-02-01T01:38:45.561Z,507.00
2023-02-01T01:39:44.910Z,504.00
2023-02-01T01:40:44.887Z,502.00
2023-02-01T01:41:44.873Z,506.00
2023-02-01T01:42:44.851Z,500.00
2023-02-01T01:43:44.835Z,502.00
2023-02-01T01:44:44.822Z,512.00
2023-02-01T01:45:44.797Z,508.00
2023-02-01T01:46:44.798Z,503.00
2023-02-01T01:47:44.759Z,505.00
2023-02-01T01:48:44.731Z,506.00
2023-02-01T01:49:44.719Z,502.00
2023-02-01T01:50:44.690Z,503.00
2023-02-01T01:51:44.693Z,506.00
2023-02-01T01:52:45.071Z,507.00
2023-02-01T01:53:45.568Z,505.00
2023-02-01T01:54:44.624Z,504.00
2023-02-01T01:55:44.633Z,505.00
2023-02-01T01:56:45.568Z,508.00
2023-02-01T01:57:44.574Z,500.00
2023-02-01T01:58:44.540Z,506.00
2023-02-01T01:59:44.534Z,505.00
2023-02-01T02:00:45.080Z,504.00
2023-02-01T02:01:44.511Z,503.00
2023-02-01T02:02:44.523Z,504.00
2023-02-01T02:03:44.454Z,504.00
2023-02-01T02:04:44.505Z,504.00
2023-02-01T02:05:44.434Z,502.00
2023-02-01T02:06:44.386Z,500.00
2023-02-01T02:07:44.462Z,508.00
2023-02-01T02:08:44.359Z,503.00
2023-02-01T02:09:54.618Z,504.00
2023-02-01T02:10:45.247Z,505.00
2023-02-01T02:11:44.194Z,504.00
2023-02-01T02:12:44.107Z,504.00
2023-02-01T02:13:44.033Z,505.00
2023-02-01T02:14:43.959Z,506.00
2023-02-01T02:15:43.898Z,504.00
2023-02-01T02:16:43.902Z,506.00
2023-02-01T02:17:43.753Z,503.00
2023-02-01T02:18:43.681Z,504.00
2023-02-01T02:19:43.603Z,509.00
2023-02-01T02:20:43.561Z,505.00
2023-02-01T02:21:44.069Z,506.00
2023-02-01T02:22:43.498Z,506.00
2023-02-01T02:23:43.472Z,508.00
2023-02-01T02:24:43.450Z,504.00
2023-02-01T02:25:43.425Z,504.00
2023-02-01T02:26:43.487Z,501.00
2023-02-01T02:27:43.402Z,503.00
2023-02-01T02:28:43.364Z,510.00
2023-02-01T02:29:43.323Z,507.00
2023-02-01T02:30:43.405Z,506.00
2023-02-01T02:31:43.322Z,503.00
2023-02-01T02:32:43.244Z,508.00
2023-02-01T02:33:43.215Z,505.00
2023-02-01T02:34:43.192Z,504.00
2023-02-01T02:35:43.178Z,504.00
2023-02-01T02:36:43.221Z,507.00
2023-02-01T02:37:44.083Z,509.00
2023-02-01T02:38:43.063Z,506.00
2023-02-01T02:39:43.035Z,506.00
2023-02-01T02:40:42.983Z,507.00
2023-02-01T02:41:43.089Z,505.00
2023-02-01T02:42:42.988Z,507.00
2023-02-01T02:43:42.872Z,503.00
2023-02-01T02:44:42.815Z,510.00
2023-02-01T02:45:42.806Z,501.00
2023-02-01T02:46:42.740Z,506.00
2023-02-01T02:47:42.689Z,501.00
2023-02-01T02:48:42.662Z,505.00
2023-02-01T02:49:42.593Z,504.00
2023-02-01T02:50:42.545Z,502.00
2023-02-01T02:51:42.490Z,507.00
2023-02-01T02:52:42.459Z,504.00
2023-02-01T02:53:42.420Z,507.00
2023-02-01T02:54:42.359Z,505.00
2023-02-01T02:55:42.309Z,502.00
2023-02-01T02:56:42.255Z,506.00
2023-02-01T02:57:42.205Z,500.00
2023-02-01T02:58:42.161Z,500.00
2023-02-01T02:59:42.593Z,504.00
2023-02-01T03:00:42.050Z,501.00
2023-02-01T03:01:41.995Z,508.00
2023-02-01T03:02:41.972Z,504.00
2023-02-01T03:03:41.906Z,502.00
2023-02-01T03:04:41.831Z,502.00
2023-02-01T03:05:41.767Z,501.00
2023-02-01T03:06:41.725Z,505.00
2023-02-01T03:07:41.676Z,503.00
2023-02-01T03:08:41.621Z,500.00
2023-02-01T03:09:41.572Z,511.00
2023-02-01T03:10:41.516Z,509.00
2023-02-01T03:11:41.459Z,508.00
2023-02-01T03:12:41.469Z,504.00
2023-02-01T03:13:41.350Z,507.00
2023-02-01T03:14:41.604Z,505.00
2023-02-01T03:15:41.264Z,503.00
2023-02-01T03:16:41.259Z,505.00
2023-02-01T03:17:41.154Z,502.00
2023-02-01T03:18:41.101Z,507.00
2023-02-01T03:19:41.107Z,509.00
2023-02-01T03:20:40.959Z,502.00
2023-02-01T03:21:40.952Z,506.00
2023-02-01T03:22:40.856Z,505.00
2023-02-01T03:23:40.800Z,505.00
2023-02-01T03:24:40.766Z,508.00
2023-02-01T03:25:40.652Z,505.00
2023-02-01T03:26:40.631Z,510.00
2023-02-01T03:27:40.537Z,505.00
2023-02-01T03:28:40.602Z,503.00
2023-02-01T03:29:40.430Z,500.00
2023-02-01T03:30:40.420Z,503.00
2023-02-01T03:31:40.313Z,500.00
2023-02-01T03:32:40.229Z,508.00
2023-02-01T03:33:40.212Z,507.00
2023-02-01T03:34:40.099Z,508.00
2023-02-01T03:35:40.036Z,500.00
2023-02-01T03:36:39.982Z,501.00
2023-02-01T03:37:39.922Z,504.00
2023-02-01T03:38:39.862Z,503.00
2023-02-01T03:39:39.790Z,505.00
2023-02-01T03:40:39.709Z,504.00
2023-02-01T03:41:39.660Z,508.00
2023-02-01T03:42:39.596Z,506.00
2023-02-01T03:43:39.527Z,503.00
2023-02-01T03:44:39.465Z,501.00
2023-02-01T03:45:39.395Z,502.00
2023-02-01T03:46:39.326Z,501.00
2023-02-01T03:47:39.277Z,501.00
2023-02-01T03:48:39.202Z,502.00
2023-02-01T03:49:39.132Z,508.00
2023-02-01T03:50:39.059Z,500.00
2023-02-01T03:51:39.047Z,506.00
2023-02-01T03:52:38.937Z,502.00
2023-02-01T03:53:38.951Z,507.00
2023-02-01T03:54:38.802Z,503.00
2023-02-01T03:55:38.716Z,503.00
2023-02-01T03:56:38.646Z,502.00
2023-02-01T03:57:38.586Z,502.00
2023-02-01T03:58:38.517Z,501.00
2023-02-01T03:59:38.457Z,503.00
2023-02-01T04:00:38.395Z,506.00
2023-02-01T04:01:38.309Z,504.00
2023-02-01T04:02:38.274Z,504.00
2023-02-01T04:03:38.181Z,511.00
2023-02-01T04:04:38.115Z,503.00
2023-02-01T04:05:38.038Z,503.00
2023-02-01T04:06:38.619Z,504.00
2023-02-01T04:07:38.652Z,504.00
2023-02-01T04:08:37.818Z,504.00
2023-02-01T04:09:37.765Z,507.00
2023-02-01T04:10:37.684Z,506.00
2023-02-01T04:11:37.611Z,501.00
2023-02-01T04:12:37.534Z,501.00
2023-02-01T04:13:37.474Z,503.00
2023-02-01T04:14:37.407Z,509.00
2023-02-01T04:15:37.340Z,506.00
2023-02-01T04:16:37.292Z,505.00
2023-02-01T04:17:38.118Z,501.00
2023-02-01T04:18:37.153Z,507.00
2023-02-01T04:19:37.065Z,506.00
2023-02-01T04:20:37.045Z,503.00
2023-02-01T04:21:36.928Z,510.00
2023-02-01T04:22:36.887Z,506.00
2023-02-01T04:23:36.779Z,506.00
2023-02-01T04:24:36.818Z,502.00
2023-02-01T04:25:36.643Z,502.00
2023-02-01T04:26:36.632Z,504.00
2023-02-01T04:27:36.501Z,508.00
2023-02-01T04:28:36.415Z,506.00
2023-02-01T04:29:36.340Z,501.00
2023-02-01T04:30:36.338Z,506.00
2023-02-01T04:31:36.399Z,501.00
2023-02-01T04:32:36.131Z,505.00
2023-02-01T04:33:36.068Z,501.00
2023-02-01T04:34:35.990Z,500.00
2023-02-01T04:35:35.940Z,504.00
2023-02-01T04:36:35.937Z,503.00
2023-02-01T04:37:35.784Z,504.00
2023-02-01T04:38:35.725Z,506.00
2023-02-01T04:39:35.647Z,504.00
2023-02-01T04:40:35.574Z,511.00
2023-02-01T04:41:35.508Z,500.00
2023-02-01T04:42:36.131Z,502.00
2023-02-01T04:43:35.359Z,505.00
2023-02-01T04:44:35.290Z,503.00
2023-02-01T04:45:35.207Z,504.00
2023-02-01T04:46:35.150Z,503.00
2023-02-01T04:47:35.070Z,506.00
2023-02-01T04:48:34.999Z,507.00
2023-02-01T04:49:34.935Z,507.00
2023-02-01T04:50:34.881Z,505.00
2023-02-01T04:51:34.789Z,504.00
2023-02-01T04:52:34.722Z,506.00
2023-02-01T04:53:34.659Z,501.00
2023-02-01T04:54:34.563Z,500.00
2023-02-01T04:55:34.503Z,508.00
2023-02-01T04:56:34.435Z,502.00
2023-02-01T04:57:34.362Z,505.00
2023-02-01T04:58:34.306Z,503.00
2023-02-01T04:59:34.217Z,508.00
2023-02-01T05:00:34.140Z,504.00
2023-02-01T05:01:34.109Z,502.00
2023-02-01T05:02:33.995Z,505.00
2023-02-01T05:03:33.913Z,507.00
2023-02-01T05:04:33.850Z,505.00
2023-02-01T05:05:33.781Z,502.00
2023-02-01T05:06:33.758Z,504.00
2023-02-01T05:07:34.138Z,506.00
2023-02-01T05:08:33.553Z,507.00
2023-02-01T05:09:33.468Z,504.00
2023-02-01T05:10:33.400Z,504.00
2023-02-01T05:11:33.335Z,501.00
2023-02-01T05:12:34.143Z,507.00
2023-02-01T05:13:33.199Z,505.00
2023-02-01T05:14:33.122Z,507.00
2023-02-01T05:15:33.079Z,505.00
2023-02-01T05:16:32.941Z,509.00
2023-02-01T05:17:32.961Z,509.00
2023-02-01T05:18:32.786Z,507.00
2023-02-01T05:19:32.701Z,506.00
2023-02-01T05:20:32.637Z,504.00
2023-02-01T05:21:32.570Z,504.00
2023-02-01T05:22:32.535Z,502.00
2023-02-01T05:23:32.426Z,503.00
2023-02-01T05:24:32.372Z,509.00
2023-02-01T05:25:32.291Z,503.00
2023-02-01T05:26:32.311Z,503.00
2023-02-01T05:27:32.130Z,506.00
2023-02-01T05:28:32.071Z,503.00
2023-02-01T05:29:31.981Z,501.00
2023-02-01T05:30:31.948Z,506.00
2023-02-01T05:31:32.006Z,501.00
2023-02-01T05:32:31.869Z,506.00
2023-02-01T05:33:31.751Z,506.00
2023-02-01T05:34:31.630Z,500.00
2023-02-01T05:35:31.607Z,508.00
2023-02-01T05:36:31.466Z,504.00
2023-02-01T05:37:31.474Z,504.00
2023-02-01T05:38:31.326Z,506.00
2023-02-01T05:39:31.269Z,505.00
2023-02-01T05:40:31.196Z,503.00
2023-02-01T05:41:31.104Z,505.00
2023-02-01T05:42:31.040Z,504.00
2023-02-01T05:43:30.971Z,501.00
2023-02-01T05:44:30.870Z,502.00
2023-02-01T05:45:30.825Z,503.00
2023-02-01T05:46:30.760Z,505.00
2023-02-01T05:47:30.651Z,502.00
2023-02-01T05:48:30.556Z,505.00
2023-02-01T05:49:30.487Z,504.00
2023-02-01T05:50:30.670Z,508.00
2023-02-01T05:51:30.422Z,505.00
2023-02-01T05:52:30.356Z,509.00
2023-02-01T05:53:30.274Z,503.00
2023-02-01T05:54:30.195Z,506.00
2023-02-01T05:55:30.126Z,508.00
2023-02-01T05:56:30.052Z,501.00
2023-02-01T05:57:30.652Z,504.00
2023-02-01T05:58:30.942Z,504.00
2023-02-01T05:59:29.822Z,507.00
2023-02-01T06:39:27.288Z,591.00
2023-02-01T06:42:27.223Z,608.00
2023-02-01T06:43:27.205Z,610.00
2023-02-01T06:44:27.174Z,620.00
2023-02-01T06:45:27.128Z,629.00
2023-02-01T06:46:27.088Z,637.00
2023-02-01T06:47:27.600Z,642.00
2023-02-01T06:48:26.995Z,648.00
2023-02-01T06:49:26.962Z,656.00
2023-02-01T06:50:26.899Z,666.00
2023-02-01T06:51:26.843Z,667.00
2023-02-01T06:52:26.801Z,697.00
2023-02-01T06:53:26.738Z,705.00
2023-02-01T06:54:27.674Z,717.00
2023-02-01T06:55:26.624Z,742.00
2023-02-01T06:56:26.561Z,748.00
2023-02-01T06:57:26.576Z,765.00
2023-02-01T06:58:26.430Z,771.00
2023-02-01T06:59:26.368Z,804.00
2023-02-01T07:00:26.642Z,807.00
2023-02-01T07:01:26.246Z,822.00
2023-02-01T07:02:26.243Z,835.00
2023-02-01T07:03:26.128Z,850.00
2023-02-01T07:04:26.069Z,850.00
2023-02-01T07:05:25.997Z,873.00
2023-02-01T07:06:25.924Z,883.00
2023-02-01T07:07:25.872Z,891.00
2023-02-01T07:08:25.780Z,909.00
2023-02-01T07:09:25.711Z,928.00
2023-02-01T07:10:25.703Z,949.00
2023-02-01T07:11:25.577Z,953.00
2023-02-01T07:12:25.470Z,970.00
2023-02-01T07:13:25.408Z,993.00
2023-02-01T07:14:26.104Z,1029.00
2023-02-01T07:15:25.524Z,1040.00
2023-02-01T07:16:25.213Z,1044.00
2023-02-01T07:17:25.114Z,1062.00
2023-02-01T07:18:24.969Z,1061.00
2023-02-01T07:19:24.880Z,1076.00
2023-02-01T07:20:25.121Z,1094.00
2023-02-01T07:21:24.804Z,1119.00
2023-02-01T07:22:24.647Z,1128.00
2023-02-01T07:23:24.588Z,1122.00
2023-02-01T07:24:24.610Z,1117.00
2023-02-01T07:25:24.456Z,1111.00
2023-02-01T07:26:24.448Z,1127.00
2023-02-01T07:27:24.426Z,1085.00
2023-02-01T07:28:24.309Z,1060.00
2023-02-01T07:29:25.705Z,1093.00
2023-02-01T07:30:24.683Z,976.00
2023-02-01T07:31:24.214Z,788.00
2023-02-01T07:32:24.261Z,689.00
2023-02-01T07:33:27.939Z,694.00
2023-02-01T07:34:24.029Z,691.00
2023-02-01T07:35:23.944Z,694.00
2023-02-01T07:36:23.878Z,691.00
2023-02-01T07:37:23.801Z,664.00
2023-02-01T07:38:23.739Z,687.00
2023-02-01T07:39:23.629Z,668.00
2023-02-01T07:44:24.202Z,699.00
2023-02-01T08:14:20.411Z,1135.00
2023-02-01T08:18:20.033Z,1135.00
2023-02-01T08:19:19.920Z,1123.00
2023-02-01T08:20:19.847Z,1129.00
2023-02-01T08:22:19.627Z,1095.00
2023-02-01T08:23:19.547Z,1089.00
2023-02-01T08:24:20.528Z,1090.00
2023-02-01T08:25:19.380Z,1090.00
2023-02-01T08:27:19.709Z,1065.00
2023-02-01T08:28:19.133Z,1060.00
2023-02-01T08:29:18.967Z,1050.00
2023-02-01T08:30:18.943Z,1041.00
2023-02-01T08:31:18.882Z,1039.00
2023-02-01T08:32:18.680Z,1037.00
2023-02-01T08:33:18.602Z,1026.00
2023-02-01T08:34:18.480Z,1028.00
2023-02-01T08:35:18.461Z,1027.00
2023-02-01T08:36:18.295Z,1028.00
2023-02-01T08:37:18.190Z,1013.00
2023-02-01T08:38:18.106Z,1025.00
2023-02-01T08:39:18.116Z,1012.00
2023-02-01T08:40:18.006Z,1012.00
2023-02-01T08:41:17.968Z,1003.00
2023-02-01T08:42:17.919Z,1012.00
2023-02-01T08:43:17.893Z,983.00
2023-02-01T08:44:17.841Z,983.00
2023-02-01T08:45:17.820Z,984.00
2023-02-01T08:46:17.811Z,981.00
2023-02-01T08:47:17.726Z,983.00
2023-02-01T08:48:17.687Z,975.00
2023-02-01T08:49:17.648Z,971.00
2023-02-01T08:50:17.629Z,964.00
2023-02-01T08:51:17.584Z,973.00
2023-02-01T08:52:17.551Z,959.00
2023-02-01T08:53:17.517Z,974.00
2023-02-01T08:54:17.725Z,954.00
2023-02-01T08:55:17.514Z,955.00
2023-02-01T08:56:17.426Z,946.00
2023-02-01T08:57:17.382Z,944.00
2023-02-01T08:58:17.371Z,944.00
2023-02-01T08:59:17.397Z,948.00
2023-02-01T09:00:17.311Z,946.00
2023-02-01T09:01:17.418Z,936.00
2023-02-01T09:02:17.261Z,934.00
2023-02-01T09:03:17.232Z,931.00
2023-02-01T09:04:17.288Z,923.00
2023-02-01T09:05:17.218Z,933.00
2023-02-01T09:06:17.234Z,913.00
2023-02-01T09:07:17.820Z,917.00
2023-02-01T09:08:17.156Z,907.00
2023-02-01T09:09:17.116Z,899.00
2023-02-01T09:10:18.910Z,904.00
2023-02-01T09:11:17.067Z,927.00
2023-02-01T09:12:16.932Z,898.00
2023-02-01T09:13:17.231Z,903.00
2023-02-01T09:14:16.759Z,883.00
2023-02-01T09:15:16.680Z,886.00
2023-02-01T09:16:17.001Z,874.00
2023-02-01T09:17:16.533Z,879.00
2023-02-01T09:18:16.435Z,883.00
2023-02-01T09:19:26.053Z,865.00
2023-02-01T09:20:17.274Z,866.00
2023-02-01T09:21:16.191Z,867.00
2023-02-01T09:22:16.161Z,869.00
2023-02-01T09:23:16.025Z,866.00
2023-02-01T09:24:15.971Z,858.00
2023-02-01T09:25:16.776Z,855.00
2023-02-01T09:26:19.622Z,836.00
2023-02-01T09:27:15.716Z,836.00
2023-02-01T09:28:15.565Z,836.00
2023-02-01T09:29:15.492Z,820.00
2023-02-01T09:30:15.387Z,814.00
2023-02-01T09:31:15.418Z,821.00
2023-02-01T09:32:15.386Z,819.00
2023-02-01T09:33:15.131Z,825.00
2023-02-01T09:34:15.043Z,791.00
2023-02-01T09:35:14.963Z,802.00
2023-02-01T09:36:14.878Z,796.00
2023-02-01T09:37:14.779Z,792.00
2023-02-01T09:38:14.699Z,793.00
2023-02-01T09:39:14.648Z,780.00
2023-02-01T09:40:14.533Z,781.00
2023-02-01T09:41:14.450Z,769.00
2023-02-01T09:42:14.357Z,765.00
2023-02-01T09:43:14.279Z,767.00
2023-02-01T09:44:14.211Z,751.00
2023-02-01T09:45:14.104Z,757.00
2023-02-01T09:46:14.050Z,746.00
2023-02-01T09:47:13.949Z,745.00
2023-02-01T09:48:13.852Z,764.00
2023-02-01T09:49:13.837Z,743.00
2023-02-01T09:50:13.803Z,741.00
2023-02-01T09:51:13.769Z,722.00
2023-02-01T09:52:13.743Z,727.00
2023-02-01T09:53:13.737Z,732.00
2023-02-01T09:54:13.721Z,721.00
2023-02-01T09:55:13.686Z,735.00
2023-02-01T09:56:13.646Z,706.00
2023-02-01T09:57:13.629Z,716.00
2023-02-01T09:59:13.608Z,703.00
2023-02-01T10:23:31.606Z,655.00
2023-02-01T10:24:18.013Z,655.00
2023-02-01T13:41:04.677Z,504.00
2023-02-01T13:42:04.652Z,506.00
2023-02-01T13:44:04.561Z,505.00
2023-02-01T13:45:04.537Z,504.00
2023-02-01T13:46:04.514Z,502.00
2023-02-01T13:47:04.462Z,505.00
2023-02-01T13:48:04.415Z,506.00
2023-02-01T13:49:04.375Z,500.00
2023-02-01T13:50:04.335Z,506.00
2023-02-01T13:51:04.305Z,503.00
2023-02-01T13:52:04.260Z,502.00
2023-02-01T13:53:04.222Z,507.00
2023-02-01T13:54:04.197Z,505.00
2023-02-01T13:55:04.153Z,503.00
2023-02-01T13:56:04.112Z,502.00
2023-02-01T13:57:04.113Z,504.00
2023-02-01T13:58:04.055Z,505.00
2023-02-01T13:59:04.018Z,501.00
2023-02-01T14:03:03.994Z,507.00
2023-02-01T14:08:03.740Z,508.00
2023-02-01T14:09:03.731Z,508.00
2023-02-01T14:10:03.682Z,505.00
2023-02-01T14:11:03.641Z,510.00
2023-02-01T14:12:03.625Z,504.00
2023-02-01T14:13:03.609Z,507.00
2023-02-01T16:52:55.828Z,500.00
2023-02-01T16:54:55.715Z,510.00
2023-02-01T16:55:55.658Z,513.00
2023-02-01T16:56:55.597Z,507.00
2023-02-01T16:57:55.553Z,511.00
2023-02-01T16:58:55.917Z,507.00
2023-02-01T16:59:55.430Z,504.00
2023-02-01T17:00:55.440Z,510.00
2023-02-01T17:01:55.333Z,503.00
2023-02-01T17:02:55.284Z,509.00
2023-02-01T17:03:55.268Z,507.00
2023-02-01T17:04:55.266Z,504.00
2023-02-01T17:05:55.110Z,508.00
2023-02-01T17:06:55.056Z,511.00
2023-02-01T17:07:54.992Z,511.00
2023-02-01T17:08:54.945Z,506.00
2023-02-01T17:09:54.909Z,509.00
2023-02-01T17:10:54.824Z,503.00
2023-02-01T17:11:54.783Z,505.00
2023-02-01T17:12:54.727Z,511.00
2023-02-01T17:13:54.735Z,510.00
2023-02-01T17:14:54.627Z,511.00
2023-02-01T17:15:54.695Z,510.00
2023-02-01T17:16:54.585Z,513.00
2023-02-01T17:17:54.478Z,510.00
2023-02-01T17:18:54.449Z,512.00
2023-02-01T17:19:54.401Z,515.00
2023-02-01T17:20:54.321Z,504.00
2023-02-01T17:21:54.909Z,512.00
2023-02-01T17:22:54.225Z,504.00
2023-02-01T17:23:54.192Z,514.00
2023-02-01T17:24:54.141Z,514.00
2023-02-01T17:25:54.082Z,505.00
2023-02-01T17:26:54.175Z,513.00
2023-02-01T17:27:53.992Z,512.00
2023-02-01T17:28:53.938Z,509.00
2023-02-01T17:29:54.025Z,510.00
2023-02-01T17:30:53.860Z,517.00
2023-02-01T17:31:53.858Z,508.00
2023-02-01T17:32:54.396Z,505.00
2023-02-01T17:33:53.713Z,509.00
2023-02-01T17:34:53.692Z,512.00
2023-02-01T17:35:53.606Z,508.00
2023-02-01T17:36:54.417Z,511.00
2023-02-01T18:55:50.329Z,532.00
2023-02-01T19:04:49.932Z,521.00
2023-02-01T19:39:48.642Z,537.00
2023-02-01T19:40:48.623Z,532.00
2023-02-01T19:41:48.588Z,536.00
2023-02-01T19:42:48.554Z,529.00
2023-02-01T19:43:48.522Z,529.00
2023-02-01T19:44:48.478Z,539.00
2023-02-01T19:45:48.440Z,531.00
2023-02-01T19:46:48.505Z,533.00
2023-02-01T19:47:48.378Z,530.00
2023-02-01T19:48:48.385Z,537.00
2023-02-01T19:49:48.302Z,539.00
2023-02-01T19:50:48.259Z,534.00
2023-02-01T19:51:48.222Z,541.00
2023-02-01T19:52:48.182Z,535.00
2023-02-01T19:53:48.158Z,533.00
2023-02-01T19:54:48.169Z,544.00
2023-02-01T19:55:48.124Z,533.00
2023-02-01T19:56:48.039Z,529.00
2023-02-01T19:57:48.027Z,528.00
2023-02-01T19:58:47.965Z,539.00
2023-02-01T19:59:47.951Z,538.00
2023-02-01T20:00:47.022Z,538.00
2023-02-01T20:01:47.031Z,539.00
2023-02-01T20:02:46.997Z,533.00
2023-02-01T20:03:46.926Z,531.00
2023-02-01T20:04:46.891Z,541.00
2023-02-01T20:05:47.594Z,538.00
2023-02-01T20:06:46.830Z,538.00
2023-02-01T20:07:46.800Z,537.00
2023-02-01T20:08:46.808Z,539.00
2023-02-01T20:09:46.785Z,540.00
2023-02-01T20:10:46.679Z,543.00
2023-02-01T20:11:46.724Z,537.00
2023-02-01T20:12:47.111Z,537.00
2023-02-01T20:13:46.574Z,544.00
2023-02-01T20:14:46.551Z,539.00
2023-02-01T20:15:46.576Z,536.00
2023-02-01T20:16:46.479Z,543.00
2023-02-01T20:17:46.457Z,542.00
2023-02-01T20:18:46.408Z,540.00
2023-02-01T20:19:46.376Z,537.00
2023-02-01T20:20:46.452Z,537.00
2023-02-01T20:21:46.310Z,539.00
2023-02-01T20:22:46.270Z,535.00
2023-02-01T20:23:47.406Z,535.00
2023-02-01T20:24:46.218Z,539.00
2023-02-01T20:25:47.047Z,541.00
2023-02-01T20:26:47.043Z,540.00
2023-02-01T20:27:46.959Z,545.00
2023-02-01T20:28:46.917Z,542.00
2023-02-01T20:29:46.903Z,539.00
2023-02-01T20:30:46.934Z,540.00
2023-02-01T20:31:46.893Z,542.00
2023-02-01T20:53:45.995Z,543.00
2023-02-01T20:54:45.962Z,546.00
2023-02-01T20:55:45.969Z,543.00
2023-02-01T20:56:45.886Z,542.00
2023-02-01T20:57:45.853Z,546.00
2023-02-01T20:58:45.811Z,550.00
2023-02-01T20:59:45.779Z,542.00
2023-02-01T21:00:45.768Z,541.00
2023-02-01T21:01:45.724Z,544.00
2023-02-01T21:02:45.681Z,546.00
2023-02-01T21:03:45.677Z,541.00
2023-02-01T21:04:45.604Z,543.00
2023-02-01T21:05:45.573Z,540.00
2023-02-01T21:06:45.539Z,544.00
2023-02-01T21:07:45.518Z,543.00
2023-02-01T21:08:45.465Z,544.00
2023-02-01T21:09:45.454Z,545.00
2023-02-01T21:10:45.399Z,550.00
2023-02-01T21:11:45.363Z,544.00
2023-02-01T21:12:45.337Z,546.00
2023-02-01T21:13:45.289Z,546.00
2023-02-01T21:14:45.260Z,545.00
2023-02-01T21:15:45.231Z,546.00
2023-02-01T21:16:45.183Z,551.00
2023-02-01T21:17:46.019Z,546.00
2023-02-01T21:18:45.098Z,546.00
2023-02-01T21:19:45.068Z,543.00
2023-02-01T21:20:45.030Z,546.00
2023-02-01T21:21:45.004Z,547.00
2023-02-01T21:22:44.969Z,546.00
2023-02-01T21:23:45.066Z,547.00
2023-02-01T21:24:44.895Z,552.00
2023-02-01T21:25:44.856Z,551.00
2023-02-01T21:26:44.879Z,549.00
2023-02-01T21:27:44.772Z,547.00
2023-02-01T21:28:44.757Z,548.00
2023-02-01T21:29:44.716Z,550.00
2023-02-01T21:30:44.678Z,551.00
2023-02-01T21:31:44.797Z,547.00
2023-02-01T21:32:44.600Z,550.00
2023-02-01T21:33:44.583Z,538.00
2023-02-01T21:34:44.543Z,540.00
2023-02-01T21:35:44.520Z,549.00
2023-02-01T21:36:44.481Z,541.00
2023-02-01T21:37:44.455Z,549.00
2023-02-01T23:25:41.421Z,557.00
2023-02-01T23:26:41.356Z,556.00
2023-02-01T23:27:41.321Z,558.00
2023-02-01T23:28:41.321Z,558.00
2023-02-01T23:29:41.269Z,556.00
2023-02-01T23:30:41.266Z,557.00
2023-02-01T23:31:41.297Z,559.00
2023-02-01T23:32:41.213Z,556.00
2023-02-01T23:33:41.189Z,559.00
2023-02-01T23:34:41.166Z,551.00
2023-02-01T23:35:41.140Z,556.00
2023-02-01T23:37:41.095Z,556.00
2023-02-01T23:38:41.070Z,559.00
2023-02-01T23:39:41.049Z,554.00
2023-02-01T23:40:41.025Z,555.00
2023-02-01T23:41:41.020Z,561.00
2023-02-01T23:42:40.991Z,556.00
2023-02-01T23:43:40.963Z,561.00
2023-02-01T23:44:40.942Z,562.00
2023-02-01T23:45:40.934Z,559.00
2023-02-01T23:46:40.956Z,556.00
2023-02-01T23:47:41.041Z,561.00
2023-02-01T23:48:40.854Z,558.00
2023-02-01T23:49:40.827Z,555.00
2023-02-01T23:50:40.870Z,559.00
2023-02-01T23:51:40.777Z,560.00
2023-02-01T23:52:40.746Z,560.00
2023-02-01T23:53:40.726Z,559.00
2023-02-01T23:54:40.699Z,555.00
2023-02-01T23:55:40.672Z,559.00
2023-02-01T23:56:40.654Z,556.00
2023-02-01T23:57:40.634Z,559.00
2023-02-01T23:58:40.608Z,561.00
2023-02-01T23:59:40.576Z,559.00
